sensor_id;sensor_type;location;lat;lon;timestamp;P1;durP1;ratioP1;P2;durP2;ratioP2
39728;SDS011;25402;42.004;23.088;2023-06-14T00:00:47;19.65;;;8.15;;
39728;SDS011;25402;42.004;23.088;2023-06-14T00:03:14;14.80;;;8.65;;
39728;SDS011;25402;42.004;23.088;2023-06-14T00:05:57;16.55;;;8.18;;
39728;SDS011;25402;42.004;23.088;2023-06-14T00:08:24;14.45;;;8.25;;
39728;SDS011;25402;42.004;23.088;2023-06-14T00:10:51;13.60;;;7.68;;
39728;SDS011;25402;42.004;23.088;2023-06-14T00:13:18;16.33;;;8.40;;
39728;SDS011;25402;42.004;23.088;2023-06-14T00:15:45;18.38;;;9.23;;
39728;SDS011;25402;42.004;23.088;2023-06-14T00:18:13;13.93;;;8.15;;
39728;SDS011;25402;42.004;23.088;2023-06-14T00:20:41;18.00;;;7.95;;
39728;SDS011;25402;42.004;23.088;2023-06-14T00:23:10;16.17;;;8.73;;
39728;SDS011;25402;42.004;23.088;2023-06-14T00:25:37;12.10;;;8.20;;
39728;SDS011;25402;42.004;23.088;2023-06-14T00:28:04;16.70;;;8.90;;
39728;SDS011;25402;42.004;23.088;2023-06-14T00:30:31;13.68;;;8.73;;
39728;SDS011;25402;42.004;23.088;2023-06-14T00:32:58;15.90;;;8.80;;
39728;SDS011;25402;42.004;23.088;2023-06-14T00:35:25;18.15;;;8.20;;
39728;SDS011;25402;42.004;23.088;2023-06-14T00:37:52;16.35;;;8.88;;
39728;SDS011;25402;42.004;23.088;2023-06-14T00:40:21;19.48;;;8.40;;
39728;SDS011;25402;42.004;23.088;2023-06-14T00:42:48;12.57;;;7.70;;
39728;SDS011;25402;42.004;23.088;2023-06-14T00:45:15;20.65;;;8.88;;
39728;SDS011;25402;42.004;23.088;2023-06-14T00:47:43;14.85;;;8.23;;
39728;SDS011;25402;42.004;23.088;2023-06-14T00:50:12;12.43;;;7.70;;
39728;SDS011;25402;42.004;23.088;2023-06-14T00:52:39;16.80;;;8.05;;
39728;SDS011;25402;42.004;23.088;2023-06-14T00:55:07;12.32;;;8.32;;
39728;SDS011;25402;42.004;23.088;2023-06-14T00:57:36;19.20;;;7.80;;
39728;SDS011;25402;42.004;23.088;2023-06-14T01:00:05;11.95;;;8.00;;
39728;SDS011;25402;42.004;23.088;2023-06-14T01:02:35;15.07;;;8.85;;
39728;SDS011;25402;42.004;23.088;2023-06-14T01:05:03;17.38;;;9.27;;
39728;SDS011;25402;42.004;23.088;2023-06-14T01:07:33;23.75;;;8.60;;
39728;SDS011;25402;42.004;23.088;2023-06-14T01:10:13;36.60;;;8.63;;
39728;SDS011;25402;42.004;23.088;2023-06-14T01:12:52;16.55;;;9.15;;
39728;SDS011;25402;42.004;23.088;2023-06-14T01:15:24;14.45;;;8.13;;
39728;SDS011;25402;42.004;23.088;2023-06-14T01:17:53;19.98;;;8.15;;
39728;SDS011;25402;42.004;23.088;2023-06-14T01:20:22;25.52;;;8.07;;
39728;SDS011;25402;42.004;23.088;2023-06-14T01:22:57;17.77;;;7.85;;
39728;SDS011;25402;42.004;23.088;2023-06-14T01:25:25;17.83;;;8.30;;
39728;SDS011;25402;42.004;23.088;2023-06-14T01:27:53;15.48;;;7.55;;
39728;SDS011;25402;42.004;23.088;2023-06-14T01:30:24;21.10;;;8.73;;
39728;SDS011;25402;42.004;23.088;2023-06-14T01:32:52;17.40;;;7.38;;
39728;SDS011;25402;42.004;23.088;2023-06-14T01:35:20;15.65;;;7.55;;
39728;SDS011;25402;42.004;23.088;2023-06-14T01:37:48;15.13;;;8.45;;
39728;SDS011;25402;42.004;23.088;2023-06-14T01:40:17;19.15;;;8.25;;
39728;SDS011;25402;42.004;23.088;2023-06-14T01:42:46;18.70;;;8.93;;
39728;SDS011;25402;42.004;23.088;2023-06-14T01:45:14;20.23;;;8.63;;
39728;SDS011;25402;42.004;23.088;2023-06-14T01:47:42;15.73;;;8.85;;
39728;SDS011;25402;42.004;23.088;2023-06-14T01:50:10;13.23;;;8.27;;
39728;SDS011;25402;42.004;23.088;2023-06-14T01:52:37;19.27;;;8.35;;
39728;SDS011;25402;42.004;23.088;2023-06-14T01:55:04;16.05;;;8.05;;
39728;SDS011;25402;42.004;23.088;2023-06-14T01:57:34;14.68;;;7.93;;
39728;SDS011;25402;42.004;23.088;2023-06-14T02:00:01;16.50;;;8.13;;
39728;SDS011;25402;42.004;23.088;2023-06-14T02:02:29;13.20;;;8.57;;
39728;SDS011;25402;42.004;23.088;2023-06-14T02:04:56;11.95;;;8.30;;
39728;SDS011;25402;42.004;23.088;2023-06-14T02:07:23;17.83;;;8.85;;
39728;SDS011;25402;42.004;23.088;2023-06-14T02:09:50;20.83;;;8.45;;
39728;SDS011;25402;42.004;23.088;2023-06-14T02:12:17;19.83;;;8.73;;
39728;SDS011;25402;42.004;23.088;2023-06-14T02:14:45;14.48;;;9.13;;
39728;SDS011;25402;42.004;23.088;2023-06-14T02:17:13;16.05;;;8.57;;
39728;SDS011;25402;42.004;23.088;2023-06-14T02:19:41;13.02;;;8.82;;
39728;SDS011;25402;42.004;23.088;2023-06-14T02:22:08;14.90;;;9.05;;
39728;SDS011;25402;42.004;23.088;2023-06-14T02:24:35;21.38;;;8.98;;
39728;SDS011;25402;42.004;23.088;2023-06-14T02:27:02;19.48;;;9.10;;
39728;SDS011;25402;42.004;23.088;2023-06-14T02:29:30;18.45;;;9.27;;
39728;SDS011;25402;42.004;23.088;2023-06-14T02:31:58;22.45;;;9.85;;
39728;SDS011;25402;42.004;23.088;2023-06-14T02:34:25;28.25;;;10.90;;
39728;SDS011;25402;42.004;23.088;2023-06-14T02:36:52;20.63;;;10.40;;
39728;SDS011;25402;42.004;23.088;2023-06-14T02:39:19;19.38;;;10.23;;
39728;SDS011;25402;42.004;23.088;2023-06-14T02:41:48;14.48;;;8.98;;
39728;SDS011;25402;42.004;23.088;2023-06-14T02:44:15;23.35;;;9.45;;
39728;SDS011;25402;42.004;23.088;2023-06-14T02:46:44;18.75;;;12.82;;
39728;SDS011;25402;42.004;23.088;2023-06-14T02:49:12;15.90;;;9.82;;
39728;SDS011;25402;42.004;23.088;2023-06-14T02:51:39;15.50;;;9.00;;
39728;SDS011;25402;42.004;23.088;2023-06-14T02:54:07;14.10;;;8.88;;
39728;SDS011;25402;42.004;23.088;2023-06-14T02:56:33;15.02;;;9.68;;
39728;SDS011;25402;42.004;23.088;2023-06-14T02:59:01;14.52;;;9.07;;
39728;SDS011;25402;42.004;23.088;2023-06-14T03:01:28;14.27;;;8.13;;
39728;SDS011;25402;42.004;23.088;2023-06-14T03:03:59;22.77;;;8.77;;
39728;SDS011;25402;42.004;23.088;2023-06-14T03:06:29;15.30;;;8.60;;
39728;SDS011;25402;42.004;23.088;2023-06-14T03:08:56;21.63;;;9.63;;
39728;SDS011;25402;42.004;23.088;2023-06-14T03:11:26;16.75;;;8.45;;
39728;SDS011;25402;42.004;23.088;2023-06-14T03:13:53;17.35;;;8.38;;
39728;SDS011;25402;42.004;23.088;2023-06-14T03:16:21;49.40;;;8.60;;
39728;SDS011;25402;42.004;23.088;2023-06-14T03:18:51;29.30;;;8.60;;
39728;SDS011;25402;42.004;23.088;2023-06-14T03:21:18;21.63;;;8.50;;
39728;SDS011;25402;42.004;23.088;2023-06-14T03:23:47;20.15;;;8.73;;
39728;SDS011;25402;42.004;23.088;2023-06-14T03:26:14;15.68;;;8.48;;
39728;SDS011;25402;42.004;23.088;2023-06-14T03:28:43;15.32;;;8.70;;
39728;SDS011;25402;42.004;23.088;2023-06-14T03:31:10;19.42;;;8.90;;
39728;SDS011;25402;42.004;23.088;2023-06-14T03:33:37;25.42;;;8.77;;
39728;SDS011;25402;42.004;23.088;2023-06-14T03:36:04;30.23;;;9.07;;
39728;SDS011;25402;42.004;23.088;2023-06-14T03:38:33;16.83;;;8.30;;
39728;SDS011;25402;42.004;23.088;2023-06-14T03:41:02;18.20;;;8.05;;
39728;SDS011;25402;42.004;23.088;2023-06-14T03:43:29;18.45;;;7.95;;
39728;SDS011;25402;42.004;23.088;2023-06-14T03:45:56;22.63;;;7.82;;
39728;SDS011;25402;42.004;23.088;2023-06-14T03:48:23;27.77;;;8.20;;
39728;SDS011;25402;42.004;23.088;2023-06-14T03:50:50;17.30;;;5.45;;
39728;SDS011;25402;42.004;23.088;2023-06-14T03:53:17;16.20;;;6.18;;
39728;SDS011;25402;42.004;23.088;2023-06-14T03:55:46;13.70;;;5.47;;
39728;SDS011;25402;42.004;23.088;2023-06-14T03:58:15;18.85;;;6.93;;
39728;SDS011;25402;42.004;23.088;2023-06-14T04:00:42;18.85;;;7.35;;
39728;SDS011;25402;42.004;23.088;2023-06-14T04:03:10;19.25;;;7.70;;
39728;SDS011;25402;42.004;23.088;2023-06-14T04:05:38;27.30;;;8.10;;
39728;SDS011;25402;42.004;23.088;2023-06-14T04:08:07;24.55;;;7.88;;
39728;SDS011;25402;42.004;23.088;2023-06-14T04:10:34;22.20;;;9.13;;
39728;SDS011;25402;42.004;23.088;2023-06-14T04:13:01;16.05;;;7.53;;
39728;SDS011;25402;42.004;23.088;2023-06-14T04:15:30;14.63;;;7.28;;
39728;SDS011;25402;42.004;23.088;2023-06-14T04:17:57;20.35;;;8.90;;
39728;SDS011;25402;42.004;23.088;2023-06-14T04:20:24;18.48;;;9.40;;
39728;SDS011;25402;42.004;23.088;2023-06-14T04:22:51;26.60;;;11.93;;
39728;SDS011;25402;42.004;23.088;2023-06-14T04:25:18;22.23;;;10.27;;
39728;SDS011;25402;42.004;23.088;2023-06-14T04:27:45;16.92;;;9.50;;
39728;SDS011;25402;42.004;23.088;2023-06-14T04:30:12;25.45;;;9.60;;
39728;SDS011;25402;42.004;23.088;2023-06-14T04:32:41;22.98;;;9.45;;
39728;SDS011;25402;42.004;23.088;2023-06-14T04:35:11;25.40;;;8.27;;
39728;SDS011;25402;42.004;23.088;2023-06-14T04:37:41;23.40;;;10.48;;
39728;SDS011;25402;42.004;23.088;2023-06-14T04:40:09;30.88;;;11.48;;
39728;SDS011;25402;42.004;23.088;2023-06-14T04:42:36;32.20;;;14.77;;
39728;SDS011;25402;42.004;23.088;2023-06-14T04:45:06;29.05;;;14.15;;
39728;SDS011;25402;42.004;23.088;2023-06-14T04:47:34;44.90;;;14.10;;
39728;SDS011;25402;42.004;23.088;2023-06-14T04:50:05;26.73;;;10.27;;
39728;SDS011;25402;42.004;23.088;2023-06-14T04:52:32;17.92;;;9.68;;
39728;SDS011;25402;42.004;23.088;2023-06-14T04:55:00;24.30;;;10.27;;
39728;SDS011;25402;42.004;23.088;2023-06-14T04:57:28;33.13;;;7.85;;
39728;SDS011;25402;42.004;23.088;2023-06-14T04:59:56;19.80;;;6.55;;
39728;SDS011;25402;42.004;23.088;2023-06-14T05:02:26;16.05;;;6.00;;
39728;SDS011;25402;42.004;23.088;2023-06-14T05:04:56;14.32;;;6.45;;
39728;SDS011;25402;42.004;23.088;2023-06-14T05:07:25;12.45;;;6.45;;
39728;SDS011;25402;42.004;23.088;2023-06-14T05:09:52;13.32;;;6.70;;
39728;SDS011;25402;42.004;23.088;2023-06-14T05:12:19;9.13;;;6.55;;
39728;SDS011;25402;42.004;23.088;2023-06-14T05:14:46;14.65;;;6.68;;
39728;SDS011;25402;42.004;23.088;2023-06-14T05:17:13;11.32;;;6.68;;
39728;SDS011;25402;42.004;23.088;2023-06-14T05:19:42;14.48;;;6.50;;
39728;SDS011;25402;42.004;23.088;2023-06-14T05:22:09;14.27;;;6.60;;
39728;SDS011;25402;42.004;23.088;2023-06-14T05:24:38;10.75;;;6.60;;
39728;SDS011;25402;42.004;23.088;2023-06-14T05:27:05;16.63;;;6.85;;
39728;SDS011;25402;42.004;23.088;2023-06-14T05:29:32;13.05;;;7.63;;
39728;SDS011;25402;42.004;23.088;2023-06-14T05:31:59;16.88;;;7.25;;
39728;SDS011;25402;42.004;23.088;2023-06-14T05:34:26;14.25;;;7.28;;
39728;SDS011;25402;42.004;23.088;2023-06-14T05:36:53;16.52;;;8.15;;
39728;SDS011;25402;42.004;23.088;2023-06-14T05:39:21;13.15;;;8.00;;
39728;SDS011;25402;42.004;23.088;2023-06-14T05:41:50;10.52;;;7.22;;
39728;SDS011;25402;42.004;23.088;2023-06-14T05:44:17;13.27;;;6.47;;
39728;SDS011;25402;42.004;23.088;2023-06-14T05:46:44;18.48;;;6.97;;
39728;SDS011;25402;42.004;23.088;2023-06-14T05:49:12;9.88;;;5.55;;
39728;SDS011;25402;42.004;23.088;2023-06-14T05:51:41;10.57;;;5.40;;
39728;SDS011;25402;42.004;23.088;2023-06-14T05:54:09;10.73;;;5.43;;
39728;SDS011;25402;42.004;23.088;2023-06-14T05:56:36;9.38;;;4.68;;
39728;SDS011;25402;42.004;23.088;2023-06-14T05:59:04;6.40;;;4.68;;
39728;SDS011;25402;42.004;23.088;2023-06-14T06:01:31;9.35;;;3.95;;
39728;SDS011;25402;42.004;23.088;2023-06-14T06:04:01;10.40;;;3.60;;
39728;SDS011;25402;42.004;23.088;2023-06-14T06:06:28;6.07;;;3.00;;
39728;SDS011;25402;42.004;23.088;2023-06-14T06:08:55;6.13;;;3.55;;
39728;SDS011;25402;42.004;23.088;2023-06-14T06:11:23;9.02;;;3.88;;
39728;SDS011;25402;42.004;23.088;2023-06-14T06:13:49;8.38;;;3.60;;
39728;SDS011;25402;42.004;23.088;2023-06-14T06:16:18;7.68;;;3.17;;
39728;SDS011;25402;42.004;23.088;2023-06-14T06:18:44;8.13;;;3.67;;
39728;SDS011;25402;42.004;23.088;2023-06-14T06:21:11;6.15;;;3.28;;
39728;SDS011;25402;42.004;23.088;2023-06-14T06:23:38;8.45;;;3.22;;
39728;SDS011;25402;42.004;23.088;2023-06-14T06:26:05;5.82;;;3.53;;
39728;SDS011;25402;42.004;23.088;2023-06-14T06:28:34;7.57;;;3.58;;
39728;SDS011;25402;42.004;23.088;2023-06-14T06:31:01;8.27;;;3.80;;
39728;SDS011;25402;42.004;23.088;2023-06-14T06:33:30;10.85;;;3.88;;
39728;SDS011;25402;42.004;23.088;2023-06-14T06:35:57;11.80;;;3.40;;
39728;SDS011;25402;42.004;23.088;2023-06-14T06:38:24;9.05;;;3.65;;
39728;SDS011;25402;42.004;23.088;2023-06-14T06:40:51;8.57;;;3.90;;
39728;SDS011;25402;42.004;23.088;2023-06-14T06:43:19;13.93;;;3.97;;
39728;SDS011;25402;42.004;23.088;2023-06-14T06:45:46;8.52;;;3.75;;
39728;SDS011;25402;42.004;23.088;2023-06-14T06:48:13;10.00;;;3.90;;
39728;SDS011;25402;42.004;23.088;2023-06-14T06:50:42;15.57;;;4.68;;
39728;SDS011;25402;42.004;23.088;2023-06-14T06:53:09;15.77;;;4.68;;
39728;SDS011;25402;42.004;23.088;2023-06-14T06:55:36;19.67;;;5.30;;
39728;SDS011;25402;42.004;23.088;2023-06-14T06:58:03;16.95;;;5.40;;
39728;SDS011;25402;42.004;23.088;2023-06-14T07:00:30;17.67;;;6.65;;
39728;SDS011;25402;42.004;23.088;2023-06-14T07:02:58;17.98;;;8.77;;
39728;SDS011;25402;42.004;23.088;2023-06-14T07:05:25;14.38;;;8.40;;
39728;SDS011;25402;42.004;23.088;2023-06-14T07:07:53;38.58;;;8.00;;
39728;SDS011;25402;42.004;23.088;2023-06-14T07:10:20;13.48;;;7.05;;
39728;SDS011;25402;42.004;23.088;2023-06-14T07:12:49;16.45;;;7.88;;
39728;SDS011;25402;42.004;23.088;2023-06-14T07:15:16;20.88;;;9.38;;
39728;SDS011;25402;42.004;23.088;2023-06-14T07:17:43;22.77;;;9.20;;
39728;SDS011;25402;42.004;23.088;2023-06-14T07:20:11;23.83;;;8.90;;
39728;SDS011;25402;42.004;23.088;2023-06-14T07:22:39;16.15;;;8.68;;
39728;SDS011;25402;42.004;23.088;2023-06-14T07:25:09;13.40;;;7.72;;
39728;SDS011;25402;42.004;23.088;2023-06-14T07:27:39;22.90;;;8.32;;
39728;SDS011;25402;42.004;23.088;2023-06-14T07:30:06;18.50;;;8.23;;
39728;SDS011;25402;42.004;23.088;2023-06-14T07:32:35;33.33;;;9.23;;
39728;SDS011;25402;42.004;23.088;2023-06-14T07:35:02;14.95;;;8.57;;
39728;SDS011;25402;42.004;23.088;2023-06-14T07:37:29;13.40;;;8.43;;
39728;SDS011;25402;42.004;23.088;2023-06-14T07:39:57;12.45;;;9.32;;
39728;SDS011;25402;42.004;23.088;2023-06-14T07:42:25;19.23;;;9.43;;
39728;SDS011;25402;42.004;23.088;2023-06-14T07:44:52;13.63;;;8.88;;
39728;SDS011;25402;42.004;23.088;2023-06-14T07:47:19;12.43;;;8.32;;
39728;SDS011;25402;42.004;23.088;2023-06-14T07:49:46;18.33;;;9.93;;
39728;SDS011;25402;42.004;23.088;2023-06-14T07:52:13;12.10;;;8.23;;
39728;SDS011;25402;42.004;23.088;2023-06-14T07:54:41;18.25;;;9.10;;
39728;SDS011;25402;42.004;23.088;2023-06-14T07:57:08;21.67;;;10.13;;
39728;SDS011;25402;42.004;23.088;2023-06-14T07:59:36;23.92;;;8.50;;
39728;SDS011;25402;42.004;23.088;2023-06-14T08:02:03;14.30;;;8.95;;
39728;SDS011;25402;42.004;23.088;2023-06-14T08:04:31;33.20;;;10.57;;
39728;SDS011;25402;42.004;23.088;2023-06-14T08:07:00;16.00;;;8.38;;
39728;SDS011;25402;42.004;23.088;2023-06-14T08:09:27;19.77;;;9.43;;
39728;SDS011;25402;42.004;23.088;2023-06-14T08:11:55;12.13;;;8.23;;
39728;SDS011;25402;42.004;23.088;2023-06-14T08:14:23;20.05;;;9.70;;
39728;SDS011;25402;42.004;23.088;2023-06-14T08:16:51;20.02;;;9.23;;
39728;SDS011;25402;42.004;23.088;2023-06-14T08:19:18;14.55;;;9.38;;
39728;SDS011;25402;42.004;23.088;2023-06-14T08:21:46;18.70;;;9.38;;
39728;SDS011;25402;42.004;23.088;2023-06-14T08:24:12;14.20;;;9.52;;
39728;SDS011;25402;42.004;23.088;2023-06-14T08:26:40;11.68;;;9.05;;
39728;SDS011;25402;42.004;23.088;2023-06-14T08:29:07;13.93;;;8.15;;
39728;SDS011;25402;42.004;23.088;2023-06-14T08:31:34;13.90;;;8.38;;
39728;SDS011;25402;42.004;23.088;2023-06-14T08:34:02;16.40;;;8.60;;
39728;SDS011;25402;42.004;23.088;2023-06-14T08:36:29;21.83;;;8.85;;
39728;SDS011;25402;42.004;23.088;2023-06-14T08:38:56;16.20;;;9.45;;
39728;SDS011;25402;42.004;23.088;2023-06-14T08:41:23;12.18;;;8.38;;
39728;SDS011;25402;42.004;23.088;2023-06-14T08:43:50;13.57;;;8.57;;
39728;SDS011;25402;42.004;23.088;2023-06-14T08:46:18;13.23;;;7.95;;
39728;SDS011;25402;42.004;23.088;2023-06-14T08:48:48;12.90;;;7.68;;
39728;SDS011;25402;42.004;23.088;2023-06-14T08:53:49;26.97;;;12.03;;
39728;SDS011;25402;42.004;23.088;2023-06-14T08:56:22;16.98;;;8.90;;
39728;SDS011;25402;42.004;23.088;2023-06-14T08:58:53;14.13;;;9.20;;
39728;SDS011;25402;42.004;23.088;2023-06-14T09:01:21;12.68;;;7.97;;
39728;SDS011;25402;42.004;23.088;2023-06-14T09:03:48;13.75;;;7.50;;
39728;SDS011;25402;42.004;23.088;2023-06-14T09:06:16;14.65;;;10.20;;
39728;SDS011;25402;42.004;23.088;2023-06-14T09:08:46;15.40;;;10.52;;
39728;SDS011;25402;42.004;23.088;2023-06-14T09:11:14;19.60;;;12.27;;
39728;SDS011;25402;42.004;23.088;2023-06-14T09:13:44;15.95;;;8.00;;
39728;SDS011;25402;42.004;23.088;2023-06-14T09:16:11;27.30;;;9.20;;
39728;SDS011;25402;42.004;23.088;2023-06-14T09:18:39;14.70;;;8.10;;
39728;SDS011;25402;42.004;23.088;2023-06-14T09:21:09;24.98;;;11.35;;
39728;SDS011;25402;42.004;23.088;2023-06-14T09:23:37;22.27;;;9.20;;
39728;SDS011;25402;42.004;23.088;2023-06-14T09:26:09;19.45;;;8.00;;
39728;SDS011;25402;42.004;23.088;2023-06-14T09:28:41;16.70;;;9.20;;
39728;SDS011;25402;42.004;23.088;2023-06-14T09:31:10;11.75;;;7.50;;
39728;SDS011;25402;42.004;23.088;2023-06-14T09:33:43;13.80;;;8.05;;
39728;SDS011;25402;42.004;23.088;2023-06-14T09:36:14;10.15;;;8.00;;
39728;SDS011;25402;42.004;23.088;2023-06-14T09:38:51;17.50;;;10.30;;
39728;SDS011;25402;42.004;23.088;2023-06-14T09:41:20;11.80;;;8.43;;
39728;SDS011;25402;42.004;23.088;2023-06-14T09:43:57;15.98;;;9.77;;
39728;SDS011;25402;42.004;23.088;2023-06-14T09:46:25;14.65;;;8.95;;
39728;SDS011;25402;42.004;23.088;2023-06-14T09:48:54;13.18;;;8.05;;
39728;SDS011;25402;42.004;23.088;2023-06-14T09:51:22;12.18;;;7.90;;
39728;SDS011;25402;42.004;23.088;2023-06-14T09:53:50;9.93;;;6.95;;
39728;SDS011;25402;42.004;23.088;2023-06-14T09:56:18;10.30;;;6.28;;
39728;SDS011;25402;42.004;23.088;2023-06-14T09:58:54;21.90;;;8.38;;
39728;SDS011;25402;42.004;23.088;2023-06-14T10:01:23;12.90;;;7.60;;
39728;SDS011;25402;42.004;23.088;2023-06-14T10:03:53;13.50;;;6.88;;
39728;SDS011;25402;42.004;23.088;2023-06-14T10:06:26;10.52;;;7.78;;
39728;SDS011;25402;42.004;23.088;2023-06-14T10:08:56;11.30;;;7.82;;
39728;SDS011;25402;42.004;23.088;2023-06-14T10:11:26;19.02;;;8.38;;
39728;SDS011;25402;42.004;23.088;2023-06-14T10:13:54;21.65;;;8.20;;
39728;SDS011;25402;42.004;23.088;2023-06-14T10:16:23;15.38;;;8.00;;
39728;SDS011;25402;42.004;23.088;2023-06-14T10:18:59;14.27;;;7.88;;
39728;SDS011;25402;42.004;23.088;2023-06-14T10:21:32;38.25;;;10.27;;
39728;SDS011;25402;42.004;23.088;2023-06-14T10:24:08;44.28;;;9.70;;
39728;SDS011;25402;42.004;23.088;2023-06-14T10:26:51;12.63;;;8.03;;
39728;SDS011;25402;42.004;23.088;2023-06-14T10:29:18;15.48;;;8.40;;
39728;SDS011;25402;42.004;23.088;2023-06-14T10:31:48;16.83;;;10.00;;
39728;SDS011;25402;42.004;23.088;2023-06-14T10:34:26;17.67;;;8.77;;
39728;SDS011;25402;42.004;23.088;2023-06-14T10:37:00;11.20;;;8.40;;
39728;SDS011;25402;42.004;23.088;2023-06-14T10:39:29;25.08;;;9.32;;
39728;SDS011;25402;42.004;23.088;2023-06-14T10:41:58;25.00;;;9.57;;
39728;SDS011;25402;42.004;23.088;2023-06-14T10:47:20;11.20;;;8.05;;
39728;SDS011;25402;42.004;23.088;2023-06-14T10:49:50;22.58;;;8.35;;
39728;SDS011;25402;42.004;23.088;2023-06-14T10:52:21;26.58;;;8.13;;
39728;SDS011;25402;42.004;23.088;2023-06-14T10:54:55;11.57;;;8.40;;
39728;SDS011;25402;42.004;23.088;2023-06-14T10:57:45;49.92;;;9.57;;
39728;SDS011;25402;42.004;23.088;2023-06-14T11:05:57;11.75;;;7.50;;
39728;SDS011;25402;42.004;23.088;2023-06-14T11:08:37;9.32;;;7.68;;
39728;SDS011;25402;42.004;23.088;2023-06-14T11:11:15;13.60;;;8.07;;
39728;SDS011;25402;42.004;23.088;2023-06-14T11:13:45;15.80;;;8.75;;
39728;SDS011;25402;42.004;23.088;2023-06-14T11:16:12;11.93;;;8.25;;
39728;SDS011;25402;42.004;23.088;2023-06-14T11:18:41;13.25;;;8.27;;
39728;SDS011;25402;42.004;23.088;2023-06-14T11:21:08;10.73;;;7.60;;
39728;SDS011;25402;42.004;23.088;2023-06-14T11:23:35;16.55;;;10.15;;
39728;SDS011;25402;42.004;23.088;2023-06-14T11:26:02;21.95;;;10.00;;
39728;SDS011;25402;42.004;23.088;2023-06-14T11:28:37;12.43;;;6.68;;
39728;SDS011;25402;42.004;23.088;2023-06-14T11:31:06;26.38;;;6.80;;
39728;SDS011;25402;42.004;23.088;2023-06-14T11:33:35;12.70;;;7.70;;
39728;SDS011;25402;42.004;23.088;2023-06-14T11:36:02;10.82;;;6.53;;
39728;SDS011;25402;42.004;23.088;2023-06-14T11:38:34;41.38;;;8.35;;
39728;SDS011;25402;42.004;23.088;2023-06-14T11:41:02;26.20;;;7.95;;
39728;SDS011;25402;42.004;23.088;2023-06-14T11:43:30;8.50;;;6.63;;
39728;SDS011;25402;42.004;23.088;2023-06-14T11:45:58;9.23;;;6.07;;
39728;SDS011;25402;42.004;23.088;2023-06-14T11:48:40;10.82;;;6.68;;
39728;SDS011;25402;42.004;23.088;2023-06-14T11:51:08;12.35;;;6.80;;
39728;SDS011;25402;42.004;23.088;2023-06-14T11:53:40;12.25;;;6.82;;
39728;SDS011;25402;42.004;23.088;2023-06-14T11:56:09;7.97;;;6.27;;
39728;SDS011;25402;42.004;23.088;2023-06-14T11:58:37;14.60;;;9.60;;
39728;SDS011;25402;42.004;23.088;2023-06-14T12:01:05;18.95;;;7.78;;
39728;SDS011;25402;42.004;23.088;2023-06-14T12:03:32;14.75;;;12.75;;
39728;SDS011;25402;42.004;23.088;2023-06-14T12:06:06;15.00;;;10.90;;
39728;SDS011;25402;42.004;23.088;2023-06-14T12:08:34;15.55;;;9.60;;
39728;SDS011;25402;42.004;23.088;2023-06-14T12:11:04;17.48;;;9.05;;
39728;SDS011;25402;42.004;23.088;2023-06-14T12:13:31;11.25;;;4.15;;
39728;SDS011;25402;42.004;23.088;2023-06-14T12:15:59;12.30;;;3.42;;
39728;SDS011;25402;42.004;23.088;2023-06-14T12:18:31;3.93;;;3.17;;
39728;SDS011;25402;42.004;23.088;2023-06-14T12:21:00;6.03;;;2.80;;
39728;SDS011;25402;42.004;23.088;2023-06-14T12:23:39;5.20;;;3.38;;
39728;SDS011;25402;42.004;23.088;2023-06-14T12:26:09;9.50;;;2.83;;
39728;SDS011;25402;42.004;23.088;2023-06-14T12:28:39;8.75;;;2.90;;
39728;SDS011;25402;42.004;23.088;2023-06-14T12:31:07;5.68;;;2.80;;
39728;SDS011;25402;42.004;23.088;2023-06-14T12:33:34;7.28;;;3.17;;
39728;SDS011;25402;42.004;23.088;2023-06-14T12:36:03;22.48;;;4.60;;
39728;SDS011;25402;42.004;23.088;2023-06-14T12:38:32;18.63;;;4.13;;
39728;SDS011;25402;42.004;23.088;2023-06-14T12:41:01;12.15;;;3.58;;
39728;SDS011;25402;42.004;23.088;2023-06-14T12:43:28;16.55;;;4.22;;
39728;SDS011;25402;42.004;23.088;2023-06-14T12:45:55;6.80;;;3.15;;
39728;SDS011;25402;42.004;23.088;2023-06-14T12:48:22;13.95;;;3.78;;
39728;SDS011;25402;42.004;23.088;2023-06-14T12:50:49;6.47;;;3.20;;
39728;SDS011;25402;42.004;23.088;2023-06-14T12:53:16;3.10;;;2.80;;
39728;SDS011;25402;42.004;23.088;2023-06-14T12:55:44;10.00;;;3.03;;
39728;SDS011;25402;42.004;23.088;2023-06-14T12:58:12;7.43;;;3.28;;
39728;SDS011;25402;42.004;23.088;2023-06-14T13:00:39;8.27;;;3.55;;
39728;SDS011;25402;42.004;23.088;2023-06-14T13:03:06;8.45;;;3.88;;
39728;SDS011;25402;42.004;23.088;2023-06-14T13:05:33;8.57;;;3.80;;
39728;SDS011;25402;42.004;23.088;2023-06-14T13:08:06;11.23;;;4.10;;
39728;SDS011;25402;42.004;23.088;2023-06-14T13:10:34;9.55;;;3.55;;
39728;SDS011;25402;42.004;23.088;2023-06-14T13:13:02;4.25;;;3.45;;
39728;SDS011;25402;42.004;23.088;2023-06-14T13:15:30;10.30;;;4.22;;
39728;SDS011;25402;42.004;23.088;2023-06-14T13:17:57;5.57;;;4.50;;
39728;SDS011;25402;42.004;23.088;2023-06-14T13:20:24;6.78;;;4.10;;
39728;SDS011;25402;42.004;23.088;2023-06-14T13:22:54;5.50;;;4.28;;
39728;SDS011;25402;42.004;23.088;2023-06-14T13:25:20;10.77;;;4.20;;
39728;SDS011;25402;42.004;23.088;2023-06-14T13:27:47;8.52;;;4.43;;
39728;SDS011;25402;42.004;23.088;2023-06-14T13:30:15;4.90;;;3.22;;
39728;SDS011;25402;42.004;23.088;2023-06-14T13:32:43;3.70;;;3.00;;
39728;SDS011;25402;42.004;23.088;2023-06-14T13:35:10;2.95;;;2.65;;
39728;SDS011;25402;42.004;23.088;2023-06-14T13:37:37;3.83;;;2.70;;
39728;SDS011;25402;42.004;23.088;2023-06-14T13:40:05;5.85;;;3.15;;
39728;SDS011;25402;42.004;23.088;2023-06-14T13:42:32;4.00;;;2.88;;
39728;SDS011;25402;42.004;23.088;2023-06-14T13:45:00;2.80;;;2.60;;
39728;SDS011;25402;42.004;23.088;2023-06-14T13:47:27;5.88;;;3.20;;
39728;SDS011;25402;42.004;23.088;2023-06-14T13:49:56;5.07;;;2.88;;
39728;SDS011;25402;42.004;23.088;2023-06-14T13:52:23;5.68;;;3.50;;
39728;SDS011;25402;42.004;23.088;2023-06-14T13:54:50;4.32;;;2.80;;
39728;SDS011;25402;42.004;23.088;2023-06-14T13:57:17;6.35;;;3.17;;
39728;SDS011;25402;42.004;23.088;2023-06-14T13:59:44;6.75;;;4.28;;
39728;SDS011;25402;42.004;23.088;2023-06-14T14:02:11;8.90;;;3.83;;
39728;SDS011;25402;42.004;23.088;2023-06-14T14:04:39;9.80;;;4.65;;
39728;SDS011;25402;42.004;23.088;2023-06-14T14:07:07;7.05;;;4.63;;
39728;SDS011;25402;42.004;23.088;2023-06-14T14:09:34;7.20;;;3.58;;
39728;SDS011;25402;42.004;23.088;2023-06-14T14:12:02;5.70;;;3.60;;
39728;SDS011;25402;42.004;23.088;2023-06-14T14:14:30;6.30;;;3.72;;
39728;SDS011;25402;42.004;23.088;2023-06-14T14:16:58;6.80;;;4.10;;
39728;SDS011;25402;42.004;23.088;2023-06-14T14:19:25;7.13;;;3.80;;
39728;SDS011;25402;42.004;23.088;2023-06-14T14:21:52;4.35;;;3.53;;
39728;SDS011;25402;42.004;23.088;2023-06-14T14:24:21;6.13;;;3.33;;
39728;SDS011;25402;42.004;23.088;2023-06-14T14:26:48;7.15;;;3.38;;
39728;SDS011;25402;42.004;23.088;2023-06-14T14:29:15;4.85;;;3.25;;
39728;SDS011;25402;42.004;23.088;2023-06-14T14:31:43;6.47;;;3.80;;
39728;SDS011;25402;42.004;23.088;2023-06-14T14:34:10;5.78;;;3.38;;
39728;SDS011;25402;42.004;23.088;2023-06-14T14:36:37;4.05;;;3.05;;
39728;SDS011;25402;42.004;23.088;2023-06-14T14:39:07;6.57;;;2.50;;
39728;SDS011;25402;42.004;23.088;2023-06-14T14:41:35;4.18;;;3.30;;